Saturday, August 18, 2018, 2:51 AM GMT
Back to Local

CWSA, Sable Island, N. S.

Location: , , Canada Lat: 43.933
Local Time: 2:51 AM GMT ( 2:51 GMT) Lon: -60.017
Time Zone: GMT Elev: 13 ft

Show me the last for .
Show Decoded

2018-08-18 02:14 METAR CWSA 180214Z AUTO 26004KT 240V310 2 1/2SM BR CLR 17/15 A3005 RMK SLP178 =
2018-08-18 02:11 METAR CWSA 180211Z AUTO 26004KT 240V310 4SM BR CLR 16/14 A3005 RMK SLP178 =
2018-08-18 02:00 METAR CWSA 180200Z AUTO 30004KT 9SM CLR 17/14 A3006 RMK SLP181 =
2018-08-18 01:00 METAR CWSA 180100Z AUTO 33004KT 9SM CLR 18/14 A3006 RMK SLP180 DENSITY ALT 100FT
                 =
2018-08-18 00:00 METAR CWSA 180000Z AUTO 32006KT 9SM CLR 18/14 A3005 RMK SLP179 DENSITY ALT 100FT
                 =
2018-08-17 23:00 METAR CWSA 172300Z AUTO 33006KT 9SM CLR 18/14 A3002 RMK SLP166 DENSITY ALT 200FT
                 =
2018-08-17 22:00 METAR CWSA 172200Z AUTO 33008KT 9SM CLR 19/14 A3002 RMK TS/LTNG TEMPO UNAVBL
                 SLP169 DENSITY ALT 300FT =
2018-08-17 21:00 METAR CWSA 172100Z AUTO 35007KT 9SM BKN036 20/15 A3003 RMK SLP171 DENSITY ALT
                 400FT =
2018-08-17 20:00 METAR CWSA 172000Z AUTO 33009KT 9SM OVC036 20/16 A3004 RMK SLP173 DENSITY ALT
                 400FT =
2018-08-17 19:00 METAR CWSA 171900Z AUTO 33011KT 9SM FEW022 BKN036 20/16 A3001 RMK SLP164 DENSITY
                 ALT 400FT =
2018-08-17 18:00 METAR CWSA 171800Z AUTO 34010KT 9SM SCT021 OVC033 20/16 A3002 RMK PRESRR SLP166
                 DENSITY ALT 500FT =
2018-08-17 17:47 METAR CWSA 171747Z AUTO 34010KT 9SM SCT021 BKN029 OVC044 20/16 A2999 RMK PRESFR
                 SLP156 DENSITY ALT 500FT =
2018-08-17 17:42 METAR CWSA 171742Z AUTO 34011KT 9SM BKN019 BKN031 OVC044 20/16 A2998 RMK PRESFR
                 SLP155 DENSITY ALT 500FT =
2018-08-17 17:00 METAR CWSA 171700Z AUTO 35010KT 9SM OVC041 21/17 A3006 RMK PRESRR SLP181 DENSITY
                 ALT 500FT =
2018-08-17 16:02 METAR CWSA 171602Z AUTO 35010G17KT 9SM FEW013 SCT019 BKN026 OVC039 20/18 A3002
                 RMK PRESRR SLP167 DENSITY ALT 500FT =
2018-08-17 16:00 METAR CWSA 171600Z AUTO 35011G17KT 9SM FEW013 BKN024 OVC039 20/17 A3002 RMK
                 PRESRR SLP166 DENSITY ALT 500FT =
2018-08-17 15:35 METAR CWSA 171535Z AUTO 35011KT 9SM FEW013 BKN021 BKN045 21/18 A3003 RMK PRESRR
                 SLP171 DENSITY ALT 500FT =
2018-08-17 15:11 METAR CWSA 171511Z AUTO 36010KT 9SM FEW015 SCT023 OVC045 21/18 A3001 RMK PRESFR
                 SLP165 DENSITY ALT 500FT =
2018-08-17 15:00 METAR CWSA 171500Z AUTO 36010KT 9SM FEW013 BKN023 OVC043 21/18 A3002 RMK PRESFR
                 SLP166 DENSITY ALT 500FT =
2018-08-17 14:58 METAR CWSA 171458Z AUTO 35011KT 9SM FEW013 BKN021 OVC043 21/18 A3002 RMK SLP169
                 DENSITY ALT 500FT =
2018-08-17 14:00 METAR CWSA 171400Z AUTO 34010G15KT 9SM BKN039 21/18 A3002 RMK PRESFR SLP169
                 DENSITY ALT 500FT =
2018-08-17 13:00 METAR CWSA 171300Z AUTO 33011KT 9SM FEW019 BKN029 20/17 A2999 RMK PRESFR SLP156
                 DENSITY ALT 500FT =
2018-08-17 12:00 METAR CWSA 171200Z AUTO 34011KT 9SM CLR 21/18 A3003 RMK SLP172 DENSITY ALT 500FT
                 =
2018-08-17 11:00 METAR CWSA 171100Z AUTO 35014KT 9SM CLR 20/18 A3003 RMK PRESRR SLP170 DENSITY
                 ALT 400FT =
2018-08-17 10:12 METAR CWSA 171012Z AUTO 33015KT 9SM SCT020 19/17 A2997 RMK SLP150 DENSITY ALT
                 400FT =
2018-08-17 10:00 METAR CWSA 171000Z AUTO 33013G18KT 9SM OVC018 20/17 A2997 RMK SLP151 DENSITY ALT
                 400FT =
2018-08-17 09:00 METAR CWSA 170900Z AUTO 33013G19KT 9SM BKN017 OVC029 20/18 A2994 RMK SLP142
                 DENSITY ALT 500FT =
2018-08-17 08:46 METAR CWSA 170846Z AUTO 33013G18KT 9SM BKN019 OVC027 20/18 A2994 RMK SLP141
                 DENSITY ALT 500FT =
2018-08-17 08:43 METAR CWSA 170843Z AUTO 33014KT 9SM SCT019 OVC027 20/18 A2994 RMK SLP140 DENSITY
                 ALT 500FT =
2018-08-17 08:37 METAR CWSA 170837Z AUTO 33015KT 9SM BKN024 OVC029 20/18 A2994 RMK SLP139 DENSITY
                 ALT 500FT =
2018-08-17 08:34 METAR CWSA 170834Z AUTO 33014KT 9SM OVC026 20/18 A2994 RMK SLP139 DENSITY ALT
                 500FT =
2018-08-17 08:00 METAR CWSA 170800Z AUTO 33013KT 9SM SCT012 OVC021 20/19 A2994 RMK SLP139 DENSITY
                 ALT 500FT =
2018-08-17 07:00 METAR CWSA 170700Z AUTO 33008KT 9SM OVC011 20/19 A2993 RMK SLP138 DENSITY ALT
                 500FT =
2018-08-17 06:05 METAR CWSA 170605Z AUTO 33007KT 9SM BKN011 BKN075 20/19 A2994 RMK SLP139 DENSITY
                 ALT 600FT =
2018-08-17 06:01 METAR CWSA 170601Z AUTO 33007KT 9SM BKN009 BKN075 20/19 A2994 RMK SLP139 DENSITY
                 ALT 600FT =
2018-08-17 06:00 METAR CWSA 170600Z AUTO 33006KT 9SM SCT009 BKN075 20/19 A2994 RMK SLP139 DENSITY
                 ALT 600FT =
2018-08-17 05:11 METAR CWSA 170511Z AUTO 31007KT 6SM BR FEW018 20/20 A2992 RMK SLP132 DENSITY ALT
                 500FT =
2018-08-17 05:00 METAR CWSA 170500Z AUTO 30006KT 5SM BR FEW095 20/20 A2991 RMK SLP131 DENSITY ALT
                 600FT =
2018-08-17 04:19 METAR CWSA 170419Z AUTO 28008KT 3SM BR FEW014 SCT044 20/20 A2991 RMK SLP130
                 DENSITY ALT 600FT =
2018-08-17 04:03 METAR CWSA 170403Z AUTO 26005KT 1 1/2SM BR SCT014 BKN055 BKN077 BKN099 20/20
                 A2991 RMK SLP131 DENSITY ALT 600FT =
2018-08-17 04:00 METAR CWSA 170400Z AUTO 27006KT 1 1/2SM BR BKN016 BKN055 BKN077 20/20 A2992 RMK
                 SLP132 DENSITY ALT 600FT =
2018-08-17 03:00 METAR CWSA 170300Z AUTO 24007KT 2SM BR SCT011 BKN016 20/20 A2991 RMK SLP130
                 DENSITY ALT 500FT =

Support USWX by starting your Amazon purchase here.